Time;durP1;ratioP1;P1;durP2;ratioP2;P2;SDS_P1;SDS_P2;PMS_P1;PMS_P2;Temp;Humidity;BMP_temperature;BMP_pressure;BME280_temperature;BME280_humidity;BME280_pressure;Samples;Min_cycle;Max_cycle;Signal;HPM_P1;HPM_P2
2022/11/03 00:01:37;;;;;;;8.90;4.05;;;;;;;12.39;47.64;95328.78;5051916;28;19928;-75
2022/11/03 00:04:07;;;;;;;6.63;3.63;;;;;;;12.55;47.45;95330.97;5051703;28;20617;-76
2022/11/03 00:06:33;;;;;;;7.45;3.50;;;;;;;12.46;48.52;95341.19;5068247;28;20039;-75
2022/11/03 00:08:59;;;;;;;6.57;3.45;;;;;;;12.32;47.51;95328.47;5033816;28;20437;-75
2022/11/03 00:11:24;;;;;;;7.00;3.63;;;;;;;12.45;47.12;95349.13;5053914;28;20116;-75
2022/11/03 00:13:50;;;;;;;6.70;3.70;;;;;;;12.41;47.56;95332.91;5069383;28;20410;-75
2022/11/03 00:16:15;;;;;;;8.52;3.72;;;;;;;12.52;47.83;95345.88;5051740;28;20032;-75
2022/11/03 00:18:41;;;;;;;9.95;4.00;;;;;;;12.41;47.21;95351.16;5069641;28;20056;-75
2022/11/03 00:21:10;;;;;;;10.18;3.50;;;;;;;12.35;47.49;95343.84;5046920;28;20025;-75
2022/11/03 00:23:38;;;;;;;9.43;4.00;;;;;;;12.40;47.67;95352.13;5067586;28;20033;-76
2022/11/03 00:26:03;;;;;;;7.60;3.75;;;;;;;12.44;47.77;95345.69;5051886;28;20056;-75
2022/11/03 00:28:32;;;;;;;7.50;3.38;;;;;;;12.45;48.40;95355.19;5068285;28;20075;-75
2022/11/03 00:31:04;;;;;;;9.60;3.58;;;;;;;12.24;48.93;95346.50;5066727;28;20086;-76
2022/11/03 00:33:32;;;;;;;7.55;3.63;;;;;;;12.14;48.40;95346.41;5069550;28;20157;-76
2022/11/03 00:35:58;;;;;;;6.70;3.35;;;;;;;12.16;48.42;95334.09;5068146;28;20032;-75
2022/11/03 00:38:24;;;;;;;9.50;3.60;;;;;;;12.24;49.23;95346.50;5051316;28;20421;-75
2022/11/03 00:40:56;;;;;;;6.25;3.38;;;;;;;12.23;49.17;95344.81;5066107;28;20118;-76
2022/11/03 00:43:22;;;;;;;9.23;3.40;;;;;;;12.20;48.87;95351.13;5068204;28;20033;-76
2022/11/03 00:45:48;;;;;;;7.90;3.67;;;;;;;12.16;48.87;95339.28;5051169;28;20044;-75
2022/11/03 00:48:29;;;;;;;9.52;4.20;;;;;;;12.26;49.05;95352.41;5052004;28;20036;-75
2022/11/03 00:51:16;;;;;;;7.97;3.45;;;;;;;12.34;48.80;95354.38;5036938;28;20044;-76
2022/11/03 00:53:52;;;;;;;7.32;3.67;;;;;;;12.03;49.28;95300.38;5067574;28;20487;-76
2022/11/03 00:56:19;;;;;;;5.93;3.25;;;;;;;12.40;48.72;95356.50;5051876;28;20032;-75
2022/11/03 00:58:45;;;;;;;5.60;3.13;;;;;;;12.35;49.53;95354.25;5051244;28;20033;-76
2022/11/03 01:01:24;;;;;;;9.15;3.22;;;;;;;12.39;49.51;95355.66;5065958;28;20119;-75
2022/11/03 01:06:49;;;;;;;8.32;3.40;;;;;;;12.37;49.26;95346.31;5065711;28;20035;-75
2022/11/03 01:09:24;;;;;;;7.57;3.92;;;;;;;12.30;50.09;95359.00;5051417;28;20526;-75
2022/11/03 01:12:13;;;;;;;6.78;3.90;;;;;;;12.23;49.78;95352.63;5065849;28;20032;-75
2022/11/03 01:14:43;;;;;;;6.63;3.80;;;;;;;12.21;49.68;95351.94;5052680;28;20094;-75
2022/11/03 01:17:11;;;;;;;8.20;3.70;;;;;;;12.15;49.69;95339.44;5069052;28;20033;-75
2022/11/03 01:19:36;;;;;;;7.43;3.70;;;;;;;12.32;49.59;95364.94;5048955;28;20076;-75
2022/11/03 01:22:02;;;;;;;10.73;3.83;;;;;;;12.24;50.24;95364.72;5067120;28;20064;-75
2022/11/03 01:24:27;;;;;;;8.85;4.28;;;;;;;12.12;50.32;95352.66;5050358;28;20024;-75
2022/11/03 01:26:52;;;;;;;9.63;4.03;;;;;;;12.19;50.10;95353.84;5050085;28;20434;-75
2022/11/03 01:29:18;;;;;;;8.73;4.28;;;;;;;12.13;50.61;95357.78;5065735;28;20411;-75
2022/11/03 01:31:43;;;;;;;8.27;4.20;;;;;;;12.12;50.44;95347.47;5070761;28;20077;-75
2022/11/03 01:34:19;;;;;;;6.43;3.60;;;;;;;12.21;50.33;95357.16;5070804;28;20482;-75
2022/11/03 01:36:45;;;;;;;9.07;4.30;;;;;;;12.13;50.41;95349.13;5070788;28;20039;-75
2022/11/03 01:39:15;;;;;;;9.60;4.03;;;;;;;12.13;51.00;95349.97;5037282;28;20029;-75
2022/11/03 01:41:41;;;;;;;6.50;3.30;;;;;;;12.11;51.23;95338.81;5054194;28;20097;-75
2022/11/03 01:44:06;;;;;;;6.38;2.95;;;;;;;12.19;49.77;95359.06;5054070;28;20086;-75
2022/11/03 01:46:31;;;;;;;7.57;3.38;;;;;;;12.29;50.41;95359.97;5071751;28;20032;-75
2022/11/03 01:49:06;;;;;;;8.38;3.38;;;;;;;12.35;49.75;95359.47;5053876;28;20020;-75
2022/11/03 01:51:31;;;;;;;7.10;3.20;;;;;;;12.47;48.51;95357.63;5054515;28;20044;-76
2022/11/03 01:53:57;;;;;;;7.53;3.33;;;;;;;12.55;49.14;95362.22;5036915;28;20025;-75
2022/11/03 01:56:23;;;;;;;6.50;2.95;;;;;;;12.58;49.56;95344.56;5052593;28;20052;-75
2022/11/03 01:58:49;;;;;;;5.82;3.30;;;;;;;12.64;48.69;95364.91;5053712;28;20020;-76
2022/11/03 02:01:14;;;;;;;6.70;3.08;;;;;;;12.66;48.44;95354.34;5053751;28;20031;-76
2022/11/03 02:03:42;;;;;;;7.80;3.78;;;;;;;12.71;48.67;95349.59;5053764;28;20036;-75
2022/11/03 02:06:08;;;;;;;9.30;3.00;;;;;;;12.73;48.84;95345.91;5053712;28;20412;-75
2022/11/03 02:08:36;;;;;;;10.30;3.65;;;;;;;12.80;48.23;95359.25;5053742;28;20037;-75
2022/11/03 02:12:05;;;;;;;6.35;3.20;;;;;;;12.88;48.34;95362.06;5037070;28;20052;-75
2022/11/03 02:13:46;;;;;;;7.35;3.38;;;;;;;12.92;48.83;95363.44;5056400;28;20121;-75
2022/11/03 02:16:12;;;;;;;7.13;3.15;;;;;;;12.90;49.47;95351.50;5086888;28;20445;-75
2022/11/03 02:18:37;;;;;;;7.93;3.20;;;;;;;12.88;49.82;95358.63;5053581;28;20036;-75
2022/11/03 02:21:16;;;;;;;5.60;3.00;;;;;;;12.93;49.63;95359.88;5053448;28;20039;-75
2022/11/03 02:23:51;;;;;;;4.68;3.00;;;;;;;12.84;49.77;95363.28;5071097;28;20403;-75
2022/11/03 02:26:16;;;;;;;8.52;3.33;;;;;;;12.75;49.47;95361.41;5069739;28;20518;-76
2022/11/03 02:28:42;;;;;;;7.13;3.50;;;;;;;12.77;48.43;95353.47;5069867;28;20028;-75
2022/11/03 02:31:32;;;;;;;6.50;3.55;;;;;;;12.88;48.20;95363.84;5053162;28;20464;-75
2022/11/03 02:34:06;;;;;;;5.45;3.20;;;;;;;12.93;48.98;95362.50;5069730;28;20040;-75
2022/11/03 02:36:45;;;;;;;9.00;3.72;;;;;;;12.97;48.63;95369.09;5054035;28;20033;-75
2022/11/03 02:39:24;;;;;;;5.20;3.25;;;;;;;12.87;48.98;95351.72;5053470;28;20028;-75
2022/11/03 02:41:49;;;;;;;10.95;3.97;;;;;;;12.80;49.57;95369.69;5053522;28;20036;-75
2022/11/03 02:44:16;;;;;;;8.45;4.03;;;;;;;12.73;49.34;95347.66;5069618;28;20078;-75
2022/11/03 02:46:42;;;;;;;10.57;4.22;;;;;;;12.90;49.16;95360.16;5053014;28;20040;-75
2022/11/03 02:49:08;;;;;;;8.38;4.35;;;;;;;12.93;48.86;95353.84;5052971;28;20035;-75
2022/11/03 02:51:33;;;;;;;8.05;3.60;;;;;;;13.01;48.88;95366.22;5052784;28;20028;-76
2022/11/03 02:54:06;;;;;;;7.45;3.65;;;;;;;13.03;48.95;95362.53;5052882;28;20387;-76
2022/11/03 02:56:34;;;;;;;8.32;3.47;;;;;;;13.02;49.05;95363.50;5069613;28;20056;-75
2022/11/03 02:59:01;;;;;;;9.15;4.35;;;;;;;12.94;49.26;95351.09;5069427;28;20384;-75
2022/11/03 03:01:33;;;;;;;8.55;4.18;;;;;;;13.03;49.47;95369.53;5052881;28;20468;-75
2022/11/03 03:04:01;;;;;;;7.72;4.50;;;;;;;13.08;49.28;95355.16;5054218;28;20131;-76
2022/11/03 03:06:33;;;;;;;10.43;4.53;;;;;;;13.07;49.29;95357.91;5049603;28;20494;-75
2022/11/03 03:09:02;;;;;;;6.45;3.75;;;;;;;13.05;49.55;95347.59;5053337;28;20502;-75
2022/11/03 03:11:36;;;;;;;8.75;4.30;;;;;;;13.06;49.76;95351.03;5053561;28;20037;-75
2022/11/03 03:14:05;;;;;;;9.13;3.92;;;;;;;13.07;49.21;95352.69;5053549;28;20044;-75
2022/11/03 03:16:30;;;;;;;7.30;3.88;;;;;;;13.12;49.61;95353.13;5053480;28;20029;-75
2022/11/03 03:19:02;;;;;;;7.20;3.80;;;;;;;13.13;49.57;95357.38;5053413;28;20096;-75
2022/11/03 03:21:33;;;;;;;8.23;4.07;;;;;;;13.08;49.96;95362.16;5053279;28;20031;-76
2022/11/03 03:24:07;;;;;;;7.40;3.92;;;;;;;13.05;49.15;95352.00;5053104;28;20021;-75
2022/11/03 03:26:34;;;;;;;8.20;4.00;;;;;;;13.12;49.03;95342.69;5053239;28;20035;-75
2022/11/03 03:29:06;;;;;;;7.72;3.70;;;;;;;13.15;49.08;95353.69;5053195;28;20048;-75
2022/11/03 03:31:33;;;;;;;8.07;4.20;;;;;;;13.13;49.15;95347.78;5053172;28;20400;-75
2022/11/03 03:33:59;;;;;;;8.18;4.30;;;;;;;13.14;49.54;95346.81;5053153;28;20096;-75
2022/11/03 03:36:25;;;;;;;7.78;3.83;;;;;;;13.24;49.33;95359.09;5053090;28;20104;-75
2022/11/03 03:38:53;;;;;;;8.25;3.70;;;;;;;13.30;49.14;95358.59;5053316;28;20028;-75
2022/11/03 03:41:21;;;;;;;7.38;3.88;;;;;;;13.26;48.72;95360.66;5052930;28;20522;-75
2022/11/03 03:43:54;;;;;;;11.38;3.60;;;;;;;13.33;48.78;95367.00;5052997;28;20035;-75
2022/11/03 03:46:20;;;;;;;5.90;3.78;;;;;;;13.32;49.28;95360.13;5052809;28;20246;-75
2022/11/03 03:48:46;;;;;;;7.93;4.35;;;;;;;13.31;49.46;95368.91;5052901;28;20483;-76
2022/11/03 03:51:12;;;;;;;7.25;3.55;;;;;;;13.31;49.59;95374.09;5052806;28;20029;-75
2022/11/03 03:53:37;;;;;;;7.70;3.97;;;;;;;13.15;49.80;95369.34;5052886;28;20422;-75
2022/11/03 03:56:04;;;;;;;7.90;4.22;;;;;;;13.16;49.79;95364.97;5052818;28;20487;-75
2022/11/03 03:58:30;;;;;;;8.05;4.28;;;;;;;13.09;50.43;95356.84;5052831;28;20147;-75
2022/11/03 04:00:55;;;;;;;10.63;4.70;;;;;;;12.93;50.68;95339.03;5052743;28;20029;-75
2022/11/03 04:03:22;;;;;;;8.45;4.50;;;;;;;12.97;50.75;95365.66;5062564;28;20527;-75
2022/11/03 04:05:47;;;;;;;9.32;4.72;;;;;;;12.97;50.93;95356.06;5055942;28;20052;-75
2022/11/03 04:08:13;;;;;;;7.03;4.32;;;;;;;12.86;51.51;95363.94;5055972;28;20120;-75
2022/11/03 04:10:39;;;;;;;7.78;4.22;;;;;;;12.79;51.41;95364.56;5055938;28;20056;-75
2022/11/03 04:23:46;;;;;;;12.60;6.28;;;;;;;12.24;53.24;95368.16;5072424;28;20125;-75
2022/11/03 04:26:13;;;;;;;8.27;4.70;;;;;;;12.15;53.36;95368.06;5072125;28;20067;-75
2022/11/03 04:28:39;;;;;;;10.13;4.70;;;;;;;12.09;53.55;95358.97;5055739;28;20131;-75
2022/11/03 04:31:08;;;;;;;10.80;5.70;;;;;;;12.05;53.63;95360.97;5071979;28;20066;-75
2022/11/03 04:33:33;;;;;;;8.02;4.80;;;;;;;12.05;53.75;95363.59;5055821;28;20469;-75
2022/11/03 04:35:59;;;;;;;8.85;5.07;;;;;;;12.01;53.86;95371.78;5088798;28;20020;-75
2022/11/03 04:38:25;;;;;;;12.82;5.25;;;;;;;11.99;53.75;95364.09;5068302;28;20440;-75
2022/11/03 04:40:55;;;;;;;8.55;5.63;;;;;;;11.96;53.89;95363.50;5035195;28;20478;-75
2022/11/03 04:43:23;;;;;;;9.43;5.13;;;;;;;11.80;54.12;95356.03;5068519;28;20029;-76
2022/11/03 04:45:48;;;;;;;10.57;5.18;;;;;;;11.84;54.18;95365.28;5035081;28;20021;-75
2022/11/03 04:48:15;;;;;;;11.50;5.70;;;;;;;11.67;54.82;95355.34;5060024;28;20033;-75
2022/11/03 04:50:41;;;;;;;9.85;5.82;;;;;;;11.61;54.83;95354.88;5060570;28;20028;-75
2022/11/03 04:53:12;;;;;;;9.68;5.57;;;;;;;11.72;54.77;95366.22;5053452;28;20039;-73
2022/11/03 04:55:41;;;;;;;15.27;6.15;;;;;;;11.71;54.57;95360.22;5059849;28;20512;-73
2022/11/03 04:58:15;;;;;;;11.07;5.68;;;;;;;11.50;55.04;95357.50;5048815;28;20054;-73
2022/11/03 05:00:41;;;;;;;10.70;6.20;;;;;;;11.44;54.93;95364.97;5067162;28;20533;-73
2022/11/03 05:03:08;;;;;;;8.48;5.85;;;;;;;11.26;55.78;95362.84;5049970;28;20032;-74
2022/11/03 05:05:34;;;;;;;12.18;5.78;;;;;;;11.23;55.68;95365.69;5064332;28;20024;-74
2022/11/03 05:07:59;;;;;;;11.90;6.05;;;;;;;11.22;56.25;95376.19;5051082;28;20044;-73
2022/11/03 05:10:26;;;;;;;11.63;6.22;;;;;;;11.27;55.72;95372.28;5067922;28;20371;-74
2022/11/03 05:12:53;;;;;;;14.57;6.20;;;;;;;11.15;56.43;95381.84;5050820;28;20562;-73
2022/11/03 05:15:41;;;;;;;10.95;6.60;;;;;;;11.05;56.73;95367.06;5052656;28;20021;-73
2022/11/03 05:18:28;;;;;;;12.52;6.07;;;;;;;11.04;56.70;95375.81;5069210;28;20032;-73
2022/11/03 05:20:57;;;;;;;11.60;6.40;;;;;;;11.03;56.47;95385.41;5053034;28;20086;-73
2022/11/03 05:23:22;;;;;;;12.70;6.05;;;;;;;10.92;56.66;95367.16;5068702;28;20048;-73
2022/11/03 05:25:55;;;;;;;10.40;6.78;;;;;;;11.06;56.17;95377.38;5066556;28;20036;-73
2022/11/03 05:28:25;;;;;;;11.88;5.93;;;;;;;11.00;56.34;95389.97;5042359;28;20103;-73
2022/11/03 05:30:51;;;;;;;9.52;5.68;;;;;;;10.74;57.39;95390.97;5060900;28;20032;-73
2022/11/03 05:33:37;;;;;;;9.90;5.95;;;;;;;10.85;56.95;95382.38;5070947;28;20384;-72
2022/11/03 05:36:13;;;;;;;14.52;6.97;;;;;;;10.84;57.36;95390.31;5066274;28;20118;-73
2022/11/03 05:38:39;;;;;;;10.90;6.75;;;;;;;10.71;57.50;95401.59;5039130;28;20036;-72
2022/11/03 05:41:05;;;;;;;12.02;6.07;;;;;;;10.71;57.64;95400.78;5050975;28;20025;-72
2022/11/03 05:43:30;;;;;;;12.40;6.57;;;;;;;10.65;58.11;95407.25;5049297;28;20078;-72
2022/11/03 05:45:57;;;;;;;10.32;6.15;;;;;;;10.77;57.78;95413.31;5069576;28;20028;-70
2022/11/03 05:48:32;;;;;;;11.10;6.60;;;;;;;10.70;58.07;95405.16;5056270;28;20033;-72
2022/11/03 05:50:59;;;;;;;13.13;6.85;;;;;;;10.69;58.13;95413.88;5027959;28;20033;-74
2022/11/03 05:53:45;;;;;;;16.30;7.05;;;;;;;10.85;57.81;95420.56;5033538;28;20379;-73
2022/11/03 05:56:16;;;;;;;15.77;6.50;;;;;;;10.94;57.75;95420.69;5050265;28;20029;-73
2022/11/03 05:58:42;;;;;;;11.57;6.53;;;;;;;10.85;58.10;95421.38;5050331;28;20041;-72
2022/11/03 06:01:28;;;;;;;14.80;7.07;;;;;;;10.90;58.56;95419.28;5023838;28;20044;-74
2022/11/03 06:03:54;;;;;;;9.65;6.07;;;;;;;11.05;58.07;95425.09;5050103;28;20062;-73
2022/11/03 06:06:23;;;;;;;16.48;7.00;;;;;;;11.14;57.55;95434.81;5057190;28;20082;-73
2022/11/03 06:08:49;;;;;;;21.08;7.47;;;;;;;11.09;57.58;95430.91;5066443;28;20115;-73
2022/11/03 06:11:20;;;;;;;16.63;7.28;;;;;;;11.04;57.79;95436.44;5067927;28;20123;-73
2022/11/03 06:13:45;;;;;;;14.27;7.07;;;;;;;11.21;57.58;95434.34;5043189;28;20028;-73
2022/11/03 06:16:11;;;;;;;12.32;6.43;;;;;;;11.40;57.27;95439.81;5063456;28;20040;-73
2022/11/03 06:18:37;;;;;;;18.00;7.00;;;;;;;11.42;57.16;95435.31;5069310;28;20028;-73
2022/11/03 06:21:12;;;;;;;14.63;6.60;;;;;;;11.32;58.10;95443.00;5067799;28;20056;-73
2022/11/03 06:23:37;;;;;;;22.80;8.55;;;;;;;11.37;58.12;95437.44;5053390;28;20174;-73
2022/11/03 06:26:03;;;;;;;13.00;7.45;;;;;;;11.54;57.90;95431.78;5036615;28;20111;-73
2022/11/03 06:28:30;;;;;;;22.55;8.65;;;;;;;11.51;58.55;95454.63;5069708;28;20039;-73
2022/11/03 06:30:55;;;;;;;15.43;8.32;;;;;;;11.47;58.47;95440.16;5066518;28;20414;-74
2022/11/03 06:33:23;;;;;;;15.48;8.13;;;;;;;11.65;58.25;95448.34;5057635;28;20033;-73
2022/11/03 06:35:49;;;;;;;11.68;7.28;;;;;;;11.75;58.13;95444.06;5049996;28;20029;-73
2022/11/03 06:38:18;;;;;;;13.82;6.93;;;;;;;11.86;58.46;95454.50;5049926;28;20029;-73
2022/11/03 06:40:44;;;;;;;13.10;7.63;;;;;;;12.07;57.67;95457.22;5052590;28;20033;-73
2022/11/03 06:43:18;;;;;;;12.23;7.43;;;;;;;12.05;58.04;95452.13;5069798;28;20056;-73
2022/11/03 06:45:51;;;;;;;14.32;7.32;;;;;;;12.15;58.05;95454.03;5052967;28;20028;-73
2022/11/03 06:48:21;;;;;;;12.20;7.28;;;;;;;12.57;57.09;95462.78;5051784;28;20037;-73
2022/11/03 06:50:47;;;;;;;13.47;7.47;;;;;;;12.86;56.14;95467.41;5037006;28;20029;-74
2022/11/03 06:53:12;;;;;;;12.15;7.38;;;;;;;13.19;55.15;95458.59;5071158;28;20391;-73
2022/11/03 06:55:38;;;;;;;15.60;7.32;;;;;;;13.43;54.70;95465.34;5035930;28;20029;-73
2022/11/03 06:58:12;;;;;;;14.38;8.02;;;;;;;13.66;54.23;95458.22;5052757;28;20036;-73
2022/11/03 07:00:38;;;;;;;18.77;9.18;;;;;;;13.86;53.14;95447.72;5053453;28;20036;-73
2022/11/03 07:03:26;;;;;;;19.17;9.88;;;;;;;14.14;52.42;95453.16;5052862;28;20418;-73
2022/11/03 07:06:12;;;;;;;18.88;9.63;;;;;;;14.49;51.81;95444.03;5052755;28;20127;-74
2022/11/03 07:08:45;;;;;;;22.10;9.30;;;;;;;14.97;50.69;95449.31;5041528;28;20033;-73
2022/11/03 07:11:21;;;;;;;25.13;10.60;;;;;;;15.49;48.87;95448.97;5034234;28;20052;-73
2022/11/03 07:13:48;;;;;;;21.42;11.15;;;;;;;16.20;46.80;95437.13;5049383;28;20033;-74
2022/11/03 07:16:26;;;;;;;22.55;9.60;;;;;;;17.30;44.59;95436.91;5033481;28;20037;-74
2022/11/03 07:18:52;;;;;;;24.10;10.27;;;;;;;18.32;42.74;95432.66;5050513;28;20037;-74
2022/11/03 07:21:39;;;;;;;18.85;9.35;;;;;;;19.18;40.80;95434.16;5034117;28;20407;-74
2022/11/03 07:24:20;;;;;;;17.63;8.45;;;;;;;20.06;38.67;95428.09;5060617;28;20089;-73
2022/11/03 07:26:45;;;;;;;16.77;8.23;;;;;;;20.33;37.60;95429.44;5068818;28;20041;-80
2022/11/03 07:29:21;;;;;;;14.25;7.75;;;;;;;20.74;36.71;95427.44;5050685;28;20090;-73
2022/11/03 07:31:47;;;;;;;13.77;7.30;;;;;;;21.26;35.19;95436.47;5052670;28;20037;-74
2022/11/03 07:34:14;;;;;;;15.60;7.55;;;;;;;21.97;33.94;95431.66;5048357;28;20029;-73
2022/11/03 07:36:40;;;;;;;18.00;8.50;;;;;;;22.45;33.10;95429.44;5043197;28;20128;-74
2022/11/03 07:39:08;;;;;;;12.68;7.82;;;;;;;22.71;32.10;95434.25;5032109;28;20111;-74
2022/11/03 07:41:33;;;;;;;13.45;8.02;;;;;;;23.16;31.62;95419.03;5049208;28;20021;-74
2022/11/03 07:43:59;;;;;;;15.43;8.77;;;;;;;23.55;31.23;95415.06;5032449;28;20086;-74
2022/11/03 07:46:24;;;;;;;17.17;8.10;;;;;;;23.49;30.92;95413.19;5048959;28;20131;-74
2022/11/03 07:48:54;;;;;;;15.35;7.85;;;;;;;22.60;32.09;95387.09;5041948;28;20025;-74
2022/11/03 07:51:23;;;;;;;17.80;8.50;;;;;;;22.30;32.84;95416.25;5057386;28;20021;-73
2022/11/03 07:53:51;;;;;;;15.23;8.38;;;;;;;21.96;33.51;95422.09;5069213;28;20027;-73
2022/11/03 07:56:20;;;;;;;15.27;8.25;;;;;;;21.68;33.65;95418.44;5037358;28;20521;-73
2022/11/03 07:58:46;;;;;;;18.17;9.45;;;;;;;21.39;34.65;95409.47;5071644;28;20028;-73
2022/11/03 08:01:26;;;;;;;19.55;10.23;;;;;;;21.04;35.62;95416.19;5054266;28;20417;-73
2022/11/03 08:03:52;;;;;;;20.30;9.80;;;;;;;20.85;35.70;95423.56;5070509;28;20024;-73
2022/11/03 08:06:17;;;;;;;14.85;8.73;;;;;;;20.77;36.04;95412.25;5070372;28;20515;-73
2022/11/03 08:08:42;;;;;;;17.98;10.10;;;;;;;20.57;36.07;95396.06;5036905;28;20036;-72
2022/11/03 08:11:08;;;;;;;23.27;10.13;;;;;;;20.45;36.49;95399.06;5071297;28;20517;-72
2022/11/03 08:13:33;;;;;;;15.23;9.75;;;;;;;20.38;36.96;95406.00;5070446;28;20041;-72
2022/11/03 08:15:59;;;;;;;19.17;11.15;;;;;;;19.64;37.55;95393.09;5053951;28;20040;-73
2022/11/03 08:18:24;;;;;;;16.73;9.98;;;;;;;19.48;38.35;95400.22;5070561;28;20098;-72
2022/11/03 08:20:50;;;;;;;20.02;10.57;;;;;;;19.66;38.25;95385.03;5071673;28;20478;-72
2022/11/03 08:23:15;;;;;;;17.65;9.50;;;;;;;19.78;38.14;95393.41;5071456;28;20482;-72
2022/11/03 08:25:42;;;;;;;20.52;11.20;;;;;;;19.29;38.63;95382.97;5073695;28;20093;-72
2022/11/03 08:28:07;;;;;;;35.47;11.57;;;;;;;19.16;39.12;95386.91;5055297;28;20583;-72
2022/11/03 08:30:33;;;;;;;20.92;12.02;;;;;;;18.99;39.25;95372.13;5055502;28;20074;-73
2022/11/03 08:32:59;;;;;;;26.15;10.82;;;;;;;19.11;39.59;95372.59;5072217;28;20051;-72
2022/11/03 08:35:24;;;;;;;19.88;9.95;;;;;;;19.24;39.22;95380.00;5054747;28;20035;-73
2022/11/03 08:37:50;;;;;;;21.35;10.85;;;;;;;19.29;39.19;95383.78;5073415;28;20063;-73
2022/11/03 08:40:15;;;;;;;21.33;10.98;;;;;;;19.28;39.19;95384.78;5055298;28;20021;-73
2022/11/03 08:42:41;;;;;;;16.83;10.43;;;;;;;19.43;38.68;95387.53;5072966;28;20051;-73
2022/11/03 08:45:07;;;;;;;22.48;10.98;;;;;;;19.44;38.79;95376.00;5071873;28;20109;-73
2022/11/03 08:47:32;;;;;;;20.77;10.23;;;;;;;19.37;38.92;95375.03;5073069;28;20040;-73
2022/11/03 08:49:58;;;;;;;18.00;10.60;;;;;;;19.53;38.47;95374.16;5038394;28;20040;-73
2022/11/03 08:52:24;;;;;;;14.95;8.60;;;;;;;19.46;39.12;95383.75;5055150;28;20112;-73
2022/11/03 08:54:49;;;;;;;21.27;11.40;;;;;;;19.12;39.76;95369.00;5071559;28;20032;-72
2022/11/03 08:57:15;;;;;;;23.90;11.93;;;;;;;19.26;39.06;95386.75;5071538;28;20043;-72
2022/11/03 08:59:40;;;;;;;22.27;11.30;;;;;;;19.35;39.44;95387.56;5071558;28;20032;-73
2022/11/03 09:02:06;;;;;;;24.33;10.85;;;;;;;19.09;39.58;95385.94;5071573;28;20040;-73
2022/11/03 09:04:31;;;;;;;20.95;11.65;;;;;;;19.08;39.35;95386.09;5071408;28;20563;-73
2022/11/03 09:06:56;;;;;;;23.88;12.48;;;;;;;19.07;39.77;95379.19;5071402;28;20468;-73
2022/11/03 09:09:22;;;;;;;19.35;11.00;;;;;;;19.29;39.43;95377.69;5070996;28;20028;-73
2022/11/03 09:11:47;;;;;;;20.25;11.95;;;;;;;19.40;39.26;95372.88;5071381;28;20043;-73
2022/11/03 09:14:13;;;;;;;18.65;11.25;;;;;;;19.25;39.56;95357.94;5054616;28;20414;-73
2022/11/03 09:16:39;;;;;;;26.15;13.32;;;;;;;19.37;39.27;95359.25;5054567;28;20509;-73
2022/11/03 09:19:04;;;;;;;27.35;13.77;;;;;;;19.28;39.75;95362.84;5054450;28;20025;-73
2022/11/03 09:21:29;;;;;;;27.05;14.38;;;;;;;19.43;39.77;95366.47;5054435;28;20029;-73
2022/11/03 09:23:58;;;;;;;21.67;13.40;;;;;;;19.47;39.42;95359.03;5054317;28;20052;-73
2022/11/03 09:26:24;;;;;;;22.88;13.18;;;;;;;19.54;39.44;95360.03;5072084;28;20085;-73
2022/11/03 09:28:49;;;;;;;22.10;13.57;;;;;;;19.59;39.32;95352.44;5054234;28;20020;-72
2022/11/03 09:31:15;;;;;;;28.92;14.35;;;;;;;19.71;38.93;95345.00;5072161;28;20039;-72
2022/11/03 09:33:40;;;;;;;30.60;15.18;;;;;;;19.46;39.64;95334.50;5037797;28;20089;-73
2022/11/03 09:36:06;;;;;;;25.25;14.77;;;;;;;19.30;40.14;95351.16;5070851;28;20037;-73
2022/11/03 09:38:32;;;;;;;25.48;13.90;;;;;;;19.57;39.69;95344.69;5072381;28;20111;-73
2022/11/03 09:40:57;;;;;;;22.25;13.95;;;;;;;19.61;39.58;95330.19;5070817;28;20521;-73
2022/11/03 09:43:22;;;;;;;30.10;13.40;;;;;;;19.73;39.32;95332.50;5037408;28;20482;-73
2022/11/03 09:45:48;;;;;;;26.80;14.40;;;;;;;19.73;39.78;95335.13;5053956;28;20033;-73
2022/11/03 09:48:14;;;;;;;24.45;13.48;;;;;;;19.80;39.51;95326.34;5070613;28;20508;-73
2022/11/03 09:50:39;;;;;;;25.92;13.30;;;;;;;19.79;39.06;95327.34;5037322;28;20090;-73
2022/11/03 09:53:04;;;;;;;23.15;13.55;;;;;;;19.56;39.11;95321.97;5037368;28;20039;-73
2022/11/03 09:55:31;;;;;;;28.70;13.52;;;;;;;19.29;39.90;95314.47;5053811;28;20045;-73
2022/11/03 09:58:00;;;;;;;23.83;13.32;;;;;;;19.39;40.23;95315.94;5037219;28;20033;-73
2022/11/03 10:00:26;;;;;;;30.42;13.05;;;;;;;19.39;39.67;95309.84;5037573;28;20033;-73
2022/11/03 10:02:51;;;;;;;21.83;13.18;;;;;;;19.26;40.38;95301.66;5053794;28;20441;-75
2022/11/03 10:05:26;;;;;;;22.08;12.18;;;;;;;19.38;39.81;95287.13;5053587;28;20036;-73
2022/11/03 10:07:53;;;;;;;21.02;11.85;;;;;;;19.73;39.22;95293.78;5053631;28;20037;-73
2022/11/03 10:10:19;;;;;;;18.10;11.93;;;;;;;19.87;39.01;95292.22;5053532;28;20052;-73
2022/11/03 10:12:44;;;;;;;22.42;11.95;;;;;;;19.99;38.74;95293.47;5053645;28;20531;-73
2022/11/03 10:15:14;;;;;;;19.55;12.00;;;;;;;19.96;38.78;95285.09;5053207;28;20025;-73
2022/11/03 10:17:40;;;;;;;20.43;11.67;;;;;;;19.96;38.44;95280.63;5036958;28;20127;-73
2022/11/03 10:20:08;;;;;;;17.95;10.98;;;;;;;20.13;38.25;95296.38;5053320;28;20291;-73
2022/11/03 10:22:34;;;;;;;20.95;10.77;;;;;;;20.22;38.26;95275.03;5053535;28;20469;-73
2022/11/03 10:25:24;;;;;;;21.48;12.60;;;;;;;20.30;37.75;95282.06;5036688;28;20025;-73
2022/11/03 10:27:49;;;;;;;21.52;11.35;;;;;;;20.37;37.66;95279.56;5071352;28;20109;-73
2022/11/03 10:30:15;;;;;;;17.75;10.88;;;;;;;20.36;37.33;95262.88;5069752;28;20498;-73
2022/11/03 10:32:40;;;;;;;22.95;10.73;;;;;;;20.39;37.20;95270.44;5053269;28;20040;-73
2022/11/03 10:35:31;;;;;;;22.00;8.80;;;;;;;20.42;36.42;95261.38;5053357;28;20047;-73
2022/11/03 10:38:31;;;;;;;23.55;9.43;;;;;;;20.35;36.46;95260.44;5069598;28;20040;-73
2022/11/03 10:41:16;;;;;;;17.05;8.95;;;;;;;20.25;36.35;95255.38;5036880;28;20028;-74
2022/11/03 10:43:43;;;;;;;16.90;9.05;;;;;;;20.43;36.06;95234.00;5069661;28;20063;-74
2022/11/03 10:46:16;;;;;;;17.27;9.77;;;;;;;20.43;36.30;95239.28;5036372;28;20028;-73
2022/11/03 10:48:42;;;;;;;17.55;9.13;;;;;;;20.37;36.27;95243.44;5053102;28;20126;-73
2022/11/03 10:51:11;;;;;;;16.45;9.55;;;;;;;20.51;35.92;95236.56;5036344;28;20033;-73
2022/11/03 10:53:37;;;;;;;17.40;9.10;;;;;;;20.35;35.66;95211.13;5053032;28;20040;-73
2022/11/03 10:56:02;;;;;;;18.90;8.45;;;;;;;20.53;35.42;95230.16;5052857;28;20178;-74
2022/11/03 10:58:29;;;;;;;12.23;6.70;;;;;;;20.64;34.32;95213.03;5069382;28;20043;-73
2022/11/03 11:00:54;;;;;;;11.50;5.95;;;;;;;20.66;34.70;95218.16;5069509;28;20024;-74
2022/11/03 11:03:20;;;;;;;12.65;6.53;;;;;;;20.47;33.78;95214.97;5069525;28;20032;-73
2022/11/03 11:05:45;;;;;;;14.00;6.45;;;;;;;20.68;33.96;95214.34;5069572;28;20070;-74
2022/11/03 11:08:13;;;;;;;10.65;5.40;;;;;;;20.73;33.49;95195.34;5069464;28;20040;-73
2022/11/03 11:10:41;;;;;;;12.45;5.25;;;;;;;20.70;33.32;95206.25;5069709;28;20060;-74
2022/11/03 11:13:21;;;;;;;14.73;6.00;;;;;;;20.77;33.42;95195.78;5052815;28;20036;-73
2022/11/03 11:15:54;;;;;;;11.73;5.43;;;;;;;20.76;32.31;95187.06;5069430;28;20063;-74
2022/11/03 11:18:28;;;;;;;14.25;5.78;;;;;;;20.65;32.54;95195.41;5069446;28;20493;-73
2022/11/03 11:20:55;;;;;;;13.50;5.88;;;;;;;20.51;32.89;95181.16;5069320;28;21111;-73
2022/11/03 11:23:26;;;;;;;15.48;6.10;;;;;;;20.55;33.07;95189.56;5036210;28;20043;-73
2022/11/03 11:26:14;;;;;;;13.88;5.72;;;;;;;20.48;32.75;95182.34;5070610;28;20081;-73
2022/11/03 11:28:43;;;;;;;11.13;5.00;;;;;;;20.47;32.38;95179.88;5071820;28;20032;-73
2022/11/03 11:31:21;;;;;;;12.80;5.22;;;;;;;20.48;32.70;95173.59;5073163;28;20031;-73
2022/11/03 11:33:46;;;;;;;11.52;4.13;;;;;;;20.67;32.26;95174.91;5073158;28;20419;-73
2022/11/03 11:36:20;;;;;;;14.07;4.18;;;;;;;20.77;31.65;95170.19;5073172;28;20024;-73
2022/11/03 11:38:51;;;;;;;11.85;3.85;;;;;;;20.85;31.93;95167.47;5056595;28;20044;-73
2022/11/03 11:41:16;;;;;;;;;;;;;;;20.85;31.70;95164.03;5074621;28;20021;-73
2022/11/03 11:43:42;;;;;;;11.40;4.68;;;;;;;20.85;32.15;95143.72;5072968;28;19923;-73
2022/11/03 11:46:19;;;;;;;21.73;10.43;;;;;;;20.92;31.88;95155.19;5039845;28;20451;-73
2022/11/03 11:48:45;;;;;;;13.43;5.47;;;;;;;20.72;32.17;95154.91;5074077;28;20097;-73